Time;durP1;ratioP1;P1;durP2;ratioP2;P2;SDS_P1;SDS_P2;PMS_P1;PMS_P2;Temp;Humidity;BMP_temperature;BMP_pressure;BME280_temperature;BME280_humidity;BME280_pressure;Samples;Min_cycle;Max_cycle;Signal;HPM_P1;HPM_P2
2022/08/11 00:01:24;;;;;;;1.80;1.10;;;;;;;;;;5010972;28;20049;-59
2022/08/11 00:04:14;;;;;;;1.77;1.13;;;;;;;;;;5114174;28;20036;-59
2022/08/11 00:07:01;;;;;;;2.00;1.13;;;;;;;;;;5100815;28;20032;-59
2022/08/11 00:09:49;;;;;;;2.22;1.52;;;;;;;;;;5116236;28;20461;-59
2022/08/11 00:12:19;;;;;;;2.40;1.77;;;;;;;;;;5102322;28;20420;-59
2022/08/11 00:14:46;;;;;;;2.72;1.30;;;;;;;;;;5077699;28;20225;-59
2022/08/11 00:17:41;;;;;;;2.30;1.63;;;;;;;;;;5095579;28;20032;-59
2022/08/11 00:20:24;;;;;;;1.52;1.00;;;;;;;;;;5077320;28;20402;-59
2022/08/11 00:23:14;;;;;;;;;;;;;;;;;;;;;
2022/08/11 00:25:47;;;;;;;4.35;1.70;;;;;;;;;;5090460;28;20032;-59
2022/08/11 00:28:38;;;;;;;3.85;1.27;;;;;;;;;;5076957;28;20060;-59
2022/08/11 00:31:06;;;;;;;2.70;1.52;;;;;;;;;;5094091;28;20119;-59
2022/08/11 00:33:39;;;;;;;2.97;1.80;;;;;;;;;;5095581;28;20028;-59
2022/08/11 00:36:35;;;;;;;3.05;1.60;;;;;;;;;;5095132;28;20031;-59
2022/08/11 00:39:08;;;;;;;1.90;1.20;;;;;;;;;;5062011;28;20435;-59
2022/08/11 00:42:01;;;;;;;1.98;1.52;;;;;;;;;;5075559;28;20032;-59
2022/08/11 00:44:34;;;;;;;4.20;1.20;;;;;;;;;;5077510;28;20036;-59
2022/08/11 00:47:33;;;;;;;;;;;;;;;;;;;;;
2022/08/11 00:50:20;;;;;;;3.13;1.85;;;;;;;;;;5076203;28;20039;-59
2022/08/11 00:53:23;;;;;;;4.38;2.13;;;;;;;;;;5094902;28;20044;-59
2022/08/11 00:56:13;;;;;;;2.50;1.33;;;;;;;;;;5095130;28;20020;-59
2022/08/11 00:58:39;;;;;;;;;;;;;;;;;;5095233;28;20111;-59
2022/08/11 01:01:32;;;;;;;;;;;;;;;;;;;;;
2022/08/11 01:04:29;;;;;;;3.53;1.60;;;;;;;;;;5075201;28;20517;-59
2022/08/11 01:07:01;;;;;;;2.20;1.42;;;;;;;;;;5094708;28;20040;-59
2022/08/11 01:10:02;;;;;;;2.90;1.75;;;;;;;;;;5094719;28;20036;-59
2022/08/11 01:12:48;;;;;;;2.45;1.48;;;;;;;;;;5062627;28;20366;-59
2022/08/11 01:15:33;;;;;;;3.15;1.70;;;;;;;;;;5094548;28;20108;-59
2022/08/11 01:18:18;;;;;;;2.78;1.55;;;;;;;;;;5094898;28;20077;-59
2022/08/11 01:20:50;;;;;;;2.08;1.35;;;;;;;;;;5093309;28;20412;-59
2022/08/11 01:23:44;;;;;;;4.10;2.10;;;;;;;;;;5075560;28;20477;-59
2022/08/11 01:26:13;;;;;;;3.33;1.95;;;;;;;;;;5094224;28;20439;-59
2022/08/11 01:28:57;;;;;;;2.90;1.85;;;;;;;;;;5075149;28;20071;-59
2022/08/11 01:31:36;;;;;;;2.58;1.70;;;;;;;;;;5074481;28;20028;-59
2022/08/11 01:34:24;;;;;;;3.05;1.85;;;;;;;;;;5076113;28;20111;-59
2022/08/11 01:40:07;;;;;;;2.80;1.48;;;;;;;;;;5093163;28;20060;-59
2022/08/11 01:45:42;;;;;;;4.55;2.25;;;;;;;;;;5094201;28;20164;-59
2022/08/11 01:48:14;;;;;;;3.08;2.05;;;;;;;;;;5093019;28;20032;-59
2022/08/11 01:50:56;;;;;;;3.17;1.75;;;;;;;;;;5093271;28;20024;-59
2022/08/11 01:54:10;;;;;;;3.22;1.80;;;;;;;;;;5093664;28;20035;-59
2022/08/11 01:56:42;;;;;;;3.17;1.85;;;;;;;;;;4994477;28;20026;-59
2022/08/11 01:59:15;;;;;;;2.28;1.58;;;;;;;;;;5010576;28;20061;-59
2022/08/11 02:02:00;;;;;;;4.05;2.03;;;;;;;;;;5043632;28;20135;-59
2022/08/11 02:04:32;;;;;;;4.97;2.00;;;;;;;;;;5075582;28;20054;-59
2022/08/11 02:07:20;;;;;;;2.28;1.65;;;;;;;;;;5093257;28;20028;-59
2022/08/11 02:13:15;;;;;;;3.65;1.92;;;;;;;;;;5112360;28;20541;-59
2022/08/11 02:15:55;;;;;;;4.75;2.00;;;;;;;;;;5113271;28;20024;-59
2022/08/11 02:23:38;;;;;;;3.80;2.47;;;;;;;;;;5113994;28;20163;-59
2022/08/11 02:24:21;;;;;;;3.35;1.95;;;;;;;;;;5113772;28;20119;-59
2022/08/11 02:27:01;;;;;;;3.85;1.77;;;;;;;;;;5113700;28;20084;-59
2022/08/11 02:30:03;;;;;;;2.60;1.70;;;;;;;;;;5113298;28;20035;-59
2022/08/11 02:35:41;;;;;;;3.15;2.08;;;;;;;;;;5113470;28;20085;-59
2022/08/11 02:38:42;;;;;;;2.65;1.83;;;;;;;;;;5113483;28;20031;-58
2022/08/11 02:44:34;;;;;;;3.55;1.77;;;;;;;;;;5113689;28;20043;-59
2022/08/11 02:47:22;;;;;;;2.92;2.08;;;;;;;;;;5112706;28;20059;-59
2022/08/11 02:50:16;;;;;;;2.40;1.50;;;;;;;;;;5112691;28;20461;-59
2022/08/11 02:53:03;;;;;;;2.95;1.95;;;;;;;;;;5113111;28;20027;-59
2022/08/11 02:55:46;;;;;;;2.47;1.67;;;;;;;;;;5113722;28;20030;-59
2022/08/11 02:58:20;;;;;;;2.92;1.80;;;;;;;;;;5111858;28;20028;-59
2022/08/11 03:00:50;;;;;;;3.63;2.10;;;;;;;;;;5112083;28;20031;-59
2022/08/11 03:03:36;;;;;;;2.95;1.92;;;;;;;;;;5113648;28;20031;-59
2022/08/11 03:06:24;;;;;;;3.08;2.13;;;;;;;;;;5079887;28;20040;-59
2022/08/11 03:09:11;;;;;;;2.75;2.03;;;;;;;;;;5112896;28;20140;-59
2022/08/11 03:18:25;;;;;;;3.40;2.33;;;;;;;;;;5009811;28;20045;-59
2022/08/11 03:21:13;;;;;;;4.78;2.20;;;;;;;;;;5009314;28;20033;-59
2022/08/11 03:24:05;;;;;;;4.63;2.92;;;;;;;;;;5086768;28;20040;-59
2022/08/11 03:26:44;;;;;;;3.67;2.65;;;;;;;;;;5074149;28;20032;-59
2022/08/11 03:29:25;;;;;;;4.82;2.40;;;;;;;;;;5092524;28;20354;-59
2022/08/11 03:32:09;;;;;;;3.13;2.22;;;;;;;;;;5066465;28;20504;-59
2022/08/11 03:34:43;;;;;;;6.38;2.53;;;;;;;;;;5089615;28;20036;-59
2022/08/11 03:43:24;;;;;;;5.47;3.17;;;;;;;;;;5120608;28;20095;-59
2022/08/11 03:45:56;;;;;;;4.00;2.92;;;;;;;;;;5119484;27;20023;-59
2022/08/11 03:48:41;;;;;;;4.53;3.67;;;;;;;;;;5127926;27;20063;-59
2022/08/11 03:51:33;;;;;;;3.63;2.10;;;;;;;;;;5097119;27;20030;-59
2022/08/11 03:54:20;;;;;;;5.05;3.47;;;;;;;;;;5113893;28;20095;-59
2022/08/11 03:57:08;;;;;;;3.47;2.80;;;;;;;;;;5099083;28;20024;-59
2022/08/11 03:59:55;;;;;;;4.95;3.38;;;;;;;;;;5105552;28;20024;-59
2022/08/11 04:02:52;;;;;;;4.03;2.83;;;;;;;;;;5117272;27;20110;-59
2022/08/11 04:05:33;;;;;;;3.75;3.17;;;;;;;;;;5091505;28;20120;-59
2022/08/11 04:08:20;;;;;;;4.05;2.80;;;;;;;;;;5073062;28;20540;-59
2022/08/11 04:11:00;;;;;;;3.85;3.10;;;;;;;;;;5085093;28;20492;-59
2022/08/11 04:13:45;;;;;;;5.80;2.90;;;;;;;;;;5098045;28;20742;-59
2022/08/11 04:16:42;;;;;;;4.65;3.28;;;;;;;;;;5088425;27;20027;-58
2022/08/11 04:19:37;;;;;;;4.28;2.85;;;;;;;;;;5069518;28;20486;-59
2022/08/11 04:22:06;;;;;;;3.88;2.60;;;;;;;;;;5091645;28;20158;-59
2022/08/11 04:24:39;;;;;;;3.53;2.53;;;;;;;;;;5095446;27;20034;-59
2022/08/11 04:27:23;;;;;;;3.60;2.60;;;;;;;;;;5119720;27;20109;-59
2022/08/11 04:30:16;;;;;;;3.92;2.65;;;;;;;;;;5135015;27;20483;-58
2022/08/11 04:33:02;;;;;;;6.03;3.05;;;;;;;;;;5104663;27;20126;-59
2022/08/11 04:35:49;;;;;;;8.43;2.92;;;;;;;;;;5097803;27;20081;-58
2022/08/11 04:45:05;;;;;;;;;;;;;;;;;;;;;
2022/08/11 05:02:36;;;;;;;2.88;2.22;;;;;;;;;;5094842;28;20038;-58
2022/08/11 05:05:30;;;;;;;3.33;2.30;;;;;;;;;;5103264;28;20024;-59
2022/08/11 05:08:15;;;;;;;3.05;2.22;;;;;;;;;;5092969;28;20024;-59
2022/08/11 05:34:52;;;;;;;3.78;2.10;;;;;;;;;;5132251;27;20119;-59
2022/08/11 05:37:30;;;;;;;3.47;2.90;;;;;;;;;;5115199;27;20039;-59
2022/08/11 05:57:33;;;;;;;3.90;3.17;;;;;;;;;;5110936;28;20039;-59
2022/08/11 06:00:09;;;;;;;4.25;2.70;;;;;;;;;;5096979;27;20093;-59
2022/08/11 06:02:49;;;;;;;4.55;2.92;;;;;;;;;;5113388;28;20497;-59
2022/08/11 06:05:22;;;;;;;3.67;2.90;;;;;;;;;;5079513;28;20028;-59
2022/08/11 06:07:53;;;;;;;4.45;2.67;;;;;;;;;;5111060;28;20039;-59
2022/08/11 06:10:37;;;;;;;3.55;2.40;;;;;;;;;;5093828;28;20258;-58
2022/08/11 06:13:09;;;;;;;6.15;2.88;;;;;;;;;;5087915;27;20389;-58
2022/08/11 06:15:54;;;;;;;4.00;2.70;;;;;;;;;;5087448;27;20036;-58
2022/08/11 06:18:33;;;;;;;2.80;2.00;;;;;;;;;;5089903;28;20032;-58
2022/08/11 06:21:09;;;;;;;3.20;2.63;;;;;;;;;;5087177;27;20035;-58
2022/08/11 06:23:39;;;;;;;5.15;3.10;;;;;;;;;;5094220;28;20024;-58
2022/08/11 06:26:13;;;;;;;4.43;3.13;;;;;;;;;;5093572;28;20557;-58
2022/08/11 06:28:45;;;;;;;4.55;2.50;;;;;;;;;;5074083;27;20409;-58
2022/08/11 06:31:33;;;;;;;;;;;;;;;;;;;;;
2022/08/11 06:34:15;;;;;;;4.55;2.85;;;;;;;;;;5070123;28;20048;-58
2022/08/11 06:36:53;;;;;;;5.50;2.47;;;;;;;;;;5103583;28;20028;-58
2022/08/11 06:39:22;;;;;;;4.45;2.83;;;;;;;;;;5084427;28;20473;-58
2022/08/11 06:41:48;;;;;;;3.20;2.47;;;;;;;;;;5081387;28;20329;-58
2022/08/11 06:44:36;;;;;;;2.17;1.73;;;;;;;;;;5086429;28;20028;-58
2022/08/11 06:47:24;;;;;;;5.50;2.15;;;;;;;;;;5085617;27;20073;-58
2022/08/11 06:52:49;;;;;;;3.20;2.60;;;;;;;;;;5118692;27;20099;-58
2022/08/11 07:01:18;;;;;;;4.35;2.65;;;;;;;;;;5086085;28;20105;-58
2022/08/11 07:03:54;;;;;;;3.85;3.38;;;;;;;;;;5068974;28;21264;-58
2022/08/11 07:06:42;;;;;;;6.45;2.70;;;;;;;;;;5086124;28;20036;-58
2022/08/11 07:29:44;;;;;;;6.68;3.10;;;;;;;;;;5091566;28;20526;-59
2022/08/11 07:32:28;;;;;;;4.43;3.08;;;;;;;;;;5084796;28;20555;-59
2022/08/11 07:35:18;;;;;;;3.30;2.63;;;;;;;;;;5085860;28;20039;-59
2022/08/11 07:37:44;;;;;;;;;;;;;;;;;;5086623;28;20032;-59
2022/08/11 07:40:16;;;;;;;4.03;2.40;;;;;;;;;;5090120;28;19911;-59
2022/08/11 07:42:46;;;;;;;3.25;2.65;;;;;;;;;;5086338;28;20464;-59
2022/08/11 07:53:31;;;;;;;3.63;2.20;;;;;;;;;;5071274;28;20120;-59
2022/08/11 07:56:31;;;;;;;4.07;2.70;;;;;;;;;;5065491;28;20359;-59
2022/08/11 08:18:43;;;;;;;4.63;2.30;;;;;;;;;;5095454;28;20116;-59
2022/08/11 08:21:13;;;;;;;5.82;3.00;;;;;;;;;;5092991;28;20075;-59
2022/08/11 08:23:45;;;;;;;2.65;2.03;;;;;;;;;;5086961;27;20032;-59
2022/08/11 08:31:54;;;;;;;3.40;2.47;;;;;;;;;;5121986;27;20381;-59
2022/08/11 08:34:34;;;;;;;5.55;2.42;;;;;;;;;;5107769;28;20450;-59
2022/08/11 08:37:04;;;;;;;3.33;2.07;;;;;;;;;;5106372;28;20392;-59
2022/08/11 08:39:36;;;;;;;2.75;1.95;;;;;;;;;;5062950;28;20350;-59
2022/08/11 08:42:13;;;;;;;3.75;2.40;;;;;;;;;;5118865;27;20395;-59
2022/08/11 08:44:43;;;;;;;3.15;2.53;;;;;;;;;;5116660;27;20040;-59
2022/08/11 08:47:46;;;;;;;5.53;2.38;;;;;;;;;;5102252;28;20032;-59
2022/08/11 08:50:22;;;;;;;4.22;2.65;;;;;;;;;;5107997;28;20056;-59
2022/08/11 08:53:05;;;;;;;4.25;2.13;;;;;;;;;;5073876;28;20272;-59
2022/08/11 08:55:32;;;;;;;3.55;2.33;;;;;;;;;;5089093;28;20024;-59
2022/08/11 08:58:02;;;;;;;3.95;2.33;;;;;;;;;;5070236;28;20066;-59
2022/08/11 09:00:48;;;;;;;2.70;2.30;;;;;;;;;;5087929;28;20028;-60
2022/08/11 09:03:26;;;;;;;3.78;2.42;;;;;;;;;;5073718;28;20528;-59
2022/08/11 09:05:57;;;;;;;3.75;2.45;;;;;;;;;;5089463;27;20028;-59
2022/08/11 09:08:27;;;;;;;;;;;;;;;;;;5059968;28;20020;-59
2022/08/11 09:13:43;;;;;;;2.58;1.90;;;;;;;;;;5087670;28;20081;-59
2022/08/11 09:16:18;;;;;;;3.35;2.22;;;;;;;;;;5076030;28;20028;-59
2022/08/11 09:18:58;;;;;;;6.03;2.33;;;;;;;;;;5088893;27;20028;-59
2022/08/11 09:21:24;;;;;;;3.22;2.00;;;;;;;;;;5070749;28;20044;-59
2022/08/11 09:27:04;;;;;;;2.83;1.83;;;;;;;;;;5092363;27;20063;-59
2022/08/11 09:29:39;;;;;;;2.53;1.77;;;;;;;;;;5072012;28;20032;-59
2022/08/11 09:32:07;;;;;;;4.28;2.03;;;;;;;;;;5088118;27;20028;-59
2022/08/11 09:34:36;;;;;;;2.65;1.90;;;;;;;;;;5089991;28;20201;-59
2022/08/11 09:45:36;;;;;;;4.13;2.10;;;;;;;;;;5087948;27;20047;-59
2022/08/11 09:48:16;;;;;;;2.92;1.92;;;;;;;;;;5086640;28;20051;-59
2022/08/11 09:50:44;;;;;;;3.10;2.33;;;;;;;;;;5067987;27;20079;-59
2022/08/11 09:53:14;;;;;;;2.88;1.95;;;;;;;;;;5084771;27;20027;-59
2022/08/11 09:55:53;;;;;;;3.50;2.15;;;;;;;;;;5115834;27;20020;-59
2022/08/11 09:58:23;;;;;;;3.47;2.25;;;;;;;;;;5075081;28;20397;-59
2022/08/11 10:00:57;;;;;;;2.15;1.67;;;;;;;;;;5092255;28;20035;-59
2022/08/11 10:03:26;;;;;;;2.53;1.70;;;;;;;;;;5087031;28;20043;-59
2022/08/11 10:08:45;;;;;;;4.22;1.75;;;;;;;;;;5087036;28;20101;-59
2022/08/11 10:11:17;;;;;;;3.65;1.90;;;;;;;;;;5088051;28;20481;-59
2022/08/11 10:16:31;;;;;;;2.63;1.88;;;;;;;;;;5087971;27;20142;-59
2022/08/11 10:19:01;;;;;;;2.20;1.75;;;;;;;;;;5086558;28;20031;-60
2022/08/11 10:26:48;;;;;;;2.88;1.88;;;;;;;;;;5087364;27;20550;-59
2022/08/11 10:27:21;;;;;;;2.33;1.63;;;;;;;;;;5087131;27;20124;-59
2022/08/11 10:35:42;;;;;;;3.25;2.53;;;;;;;;;;5086193;27;20043;-59
2022/08/11 10:38:12;;;;;;;2.00;1.40;;;;;;;;;;5087841;27;20032;-59
2022/08/11 10:40:46;;;;;;;2.15;1.58;;;;;;;;;;5072352;27;20097;-59
2022/08/11 10:43:20;;;;;;;2.90;1.75;;;;;;;;;;5119728;27;20095;-59
2022/08/11 10:48:40;;;;;;;2.15;1.45;;;;;;;;;;5104052;28;20504;-59
2022/08/11 11:00:05;;;;;;;3.75;1.67;;;;;;;;;;5115590;27;20061;-59
2022/08/11 11:02:32;;;;;;;6.82;2.13;;;;;;;;;;5068101;28;20138;-59
2022/08/11 11:05:01;;;;;;;2.50;1.50;;;;;;;;;;5067414;28;20027;-59
2022/08/11 11:07:40;;;;;;;6.90;1.88;;;;;;;;;;5087076;28;20054;-59
2022/08/11 11:10:36;;;;;;;2.35;1.65;;;;;;;;;;5090248;27;20024;-59
2022/08/11 11:18:38;;;;;;;8.07;1.98;;;;;;;;;;5089480;28;20038;-59
2022/08/11 11:21:11;;;;;;;5.20;1.65;;;;;;;;;;5067218;28;21506;-59
2022/08/11 11:23:41;;;;;;;2.30;1.52;;;;;;;;;;5100946;28;20439;-59
2022/08/11 11:26:25;;;;;;;2.40;1.60;;;;;;;;;;5106217;28;20382;-59
2022/08/11 11:29:07;;;;;;;3.20;1.60;;;;;;;;;;5094790;28;20110;-59
2022/08/11 11:31:33;;;;;;;4.30;2.08;;;;;;;;;;5085274;28;20437;-59
2022/08/11 11:34:18;;;;;;;2.60;1.67;;;;;;;;;;5119417;27;20073;-59
2022/08/11 11:36:56;;;;;;;3.65;1.60;;;;;;;;;;5135808;27;20035;-60
2022/08/11 11:39:23;;;;;;;2.33;1.42;;;;;;;;;;5083769;28;21404;-60
2022/08/11 11:41:53;;;;;;;3.08;1.67;;;;;;;;;;5088289;27;20146;-60
2022/08/11 11:44:21;;;;;;;3.65;1.35;;;;;;;;;;5089962;28;20508;-59
2022/08/11 11:46:50;;;;;;;4.00;1.75;;;;;;;;;;5090364;27;20032;-59
2022/08/11 11:49:20;;;;;;;6.50;4.65;;;;;;;;;;5095431;27;20023;-60
2022/08/11 11:51:51;;;;;;;48.30;5.07;;;;;;;;;;5077848;28;21904;-59
2022/08/11 11:54:26;;;;;;;17.52;16.77;;;;;;;;;;5096660;27;20357;-59
2022/08/11 11:56:55;;;;;;;3.30;2.20;;;;;;;;;;5092323;27;20028;-59
2022/08/11 12:02:08;;;;;;;2.92;1.95;;;;;;;;;;5091971;28;20569;-60
2022/08/11 12:04:40;;;;;;;19.65;18.27;;;;;;;;;;5090533;27;20031;-60
2022/08/11 12:10:12;;;;;;;2.50;1.60;;;;;;;;;;5091093;27;20518;-58
2022/08/11 12:15:23;;;;;;;2.58;2.20;;;;;;;;;;5124121;27;20033;-58
2022/08/11 12:17:55;;;;;;;2.60;1.63;;;;;;;;;;5136413;27;20023;-58
2022/08/11 12:20:24;;;;;;;3.88;1.85;;;;;;;;;;5127518;27;20020;-58
2022/08/11 12:28:21;;;;;;;2.53;1.40;;;;;;;;;;5089611;28;21333;-58
2022/08/11 12:30:48;;;;;;;2.17;1.30;;;;;;;;;;5090595;27;20035;-58
2022/08/11 12:33:14;;;;;;;2.72;1.75;;;;;;;;;;5086192;28;20032;-59
2022/08/11 12:35:41;;;;;;;2.53;1.50;;;;;;;;;;5103839;28;20031;-59
2022/08/11 12:38:07;;;;;;;2.47;1.88;;;;;;;;;;5101871;27;20023;-59
2022/08/11 12:46:31;;;;;;;4.35;1.73;;;;;;;;;;5088381;28;20419;-59
2022/08/11 12:51:57;;;;;;;2.50;1.77;;;;;;;;;;5087969;28;20507;-60
2022/08/11 12:54:28;;;;;;;2.10;1.50;;;;;;;;;;5095683;28;20028;-60
2022/08/11 13:05:23;;;;;;;1.85;1.15;;;;;;;;;;5072638;28;20105;-60
2022/08/11 13:07:49;;;;;;;3.10;1.80;;;;;;;;;;5088249;27;20081;-58
2022/08/11 13:12:46;;;;;;;3.08;1.85;;;;;;;;;;5093851;28;20118;-58
2022/08/11 13:13:07;;;;;;;2.55;1.58;;;;;;;;;;5122446;27;20031;-58
2022/08/11 13:15:36;;;;;;;3.72;1.83;;;;;;;;;;5114081;28;20050;-58
2022/08/11 13:18:03;;;;;;;3.93;2.00;;;;;;;;;;5101954;27;20031;-58
2022/08/11 13:20:29;;;;;;;2.58;1.45;;;;;;;;;;5087705;27;20081;-60
2022/08/11 13:23:00;;;;;;;31.95;2.72;;;;;;;;;;5090224;27;20035;-59
2022/08/11 13:25:34;;;;;;;2.08;1.13;;;;;;;;;;5073229;28;20374;-59
2022/08/11 13:28:01;;;;;;;2.28;1.48;;;;;;;;;;5073664;28;20020;-59
2022/08/11 13:33:16;;;;;;;3.00;1.83;;;;;;;;;;5117241;27;20393;-59
2022/08/11 13:35:43;;;;;;;2.85;2.00;;;;;;;;;;5059236;28;20100;-60
2022/08/11 13:38:12;;;;;;;5.35;1.73;;;;;;;;;;5075654;28;20466;-59
2022/08/11 13:40:40;;;;;;;2.00;1.33;;;;;;;;;;5085104;28;20378;-59
2022/08/11 13:43:10;;;;;;;3.80;1.63;;;;;;;;;;5089685;28;20032;-59
2022/08/11 13:45:36;;;;;;;3.10;1.90;;;;;;;;;;5068872;28;21014;-59
2022/08/11 13:48:06;;;;;;;2.88;1.63;;;;;;;;;;5088872;27;20032;-59
2022/08/11 13:53:20;;;;;;;2.50;1.50;;;;;;;;;;5109059;27;20093;-60
2022/08/11 13:55:46;;;;;;;4.80;1.48;;;;;;;;;;5106653;27;20114;-59
2022/08/11 13:58:13;;;;;;;2.15;1.30;;;;;;;;;;5134552;27;20452;-60
2022/08/11 14:00:40;;;;;;;2.63;1.60;;;;;;;;;;5133314;27;20127;-60
2022/08/11 14:03:10;;;;;;;2.53;1.48;;;;;;;;;;5134358;27;20063;-60
2022/08/11 14:05:43;;;;;;;3.40;1.55;;;;;;;;;;5127494;27;20032;-60
2022/08/11 14:08:12;;;;;;;3.25;1.63;;;;;;;;;;5087700;28;20032;-60
2022/08/11 14:10:44;;;;;;;2.30;1.80;;;;;;;;;;5086759;28;20039;-60
2022/08/11 14:16:02;;;;;;;2.13;1.45;;;;;;;;;;5102318;27;20099;-60
2022/08/11 14:18:31;;;;;;;;;;;;;;;;;;5126205;27;20468;-60
2022/08/11 14:23:44;;;;;;;2.42;1.50;;;;;;;;;;5134228;27;20128;-60
2022/08/11 14:26:22;;;;;;;2.10;1.40;;;;;;;;;;5095861;28;20031;-60
2022/08/11 14:28:54;;;;;;;3.30;1.67;;;;;;;;;;5107937;27;20035;-60
2022/08/11 14:31:21;;;;;;;4.65;1.60;;;;;;;;;;5071559;28;20408;-60
2022/08/11 14:33:52;;;;;;;2.97;1.25;;;;;;;;;;5089347;28;20210;-60
2022/08/11 14:36:20;;;;;;;2.00;1.13;;;;;;;;;;5088399;28;20036;-60
2022/08/11 14:38:47;;;;;;;2.10;1.40;;;;;;;;;;5067590;28;20043;-60
2022/08/11 14:47:04;;;;;;;2.33;1.40;;;;;;;;;;5086771;27;20527;-58
2022/08/11 14:49:34;;;;;;;2.60;1.58;;;;;;;;;;5054152;28;20037;-58
2022/08/11 14:52:01;;;;;;;1.83;1.48;;;;;;;;;;5053854;28;20051;-59
2022/08/11 14:57:16;;;;;;;1.88;1.23;;;;;;;;;;5067565;28;20152;-59
2022/08/11 14:59:43;;;;;;;2.28;1.20;;;;;;;;;;5068237;28;20029;-58
2022/08/11 15:04:57;;;;;;;2.33;1.33;;;;;;;;;;5064928;28;20052;-58
2022/08/11 15:07:29;;;;;;;4.72;1.20;;;;;;;;;;5054019;28;20048;-58
2022/08/11 15:10:02;;;;;;;2.35;1.50;;;;;;;;;;5053672;28;20021;-58
2022/08/11 15:12:29;;;;;;;2.70;1.67;;;;;;;;;;5038988;28;20036;-59
2022/08/11 15:17:43;;;;;;;2.10;1.20;;;;;;;;;;5067008;28;20515;-58
2022/08/11 15:25:43;;;;;;;2.28;1.30;;;;;;;;;;5053562;28;20051;-59
2022/08/11 15:39:26;;;;;;;2.10;1.08;;;;;;;;;;5061614;28;20560;-58
2022/08/11 15:47:45;;;;;;;44.65;4.85;;;;;;;;;;5053877;28;20114;-58
2022/08/11 15:50:15;;;;;;;2.35;1.33;;;;;;;;;;5065566;28;20450;-58
2022/08/11 15:52:42;;;;;;;;;;;;;;;;;;5051046;28;20024;-59
2022/08/11 15:55:08;;;;;;;2.92;1.70;;;;;;;;;;5066228;28;20054;-58
2022/08/11 16:05:53;;;;;;;7.57;1.45;;;;;;;;;;5046731;28;20394;-58
2022/08/11 16:08:24;;;;;;;4.13;1.75;;;;;;;;;;5051400;28;20129;-58
2022/08/11 16:10:50;;;;;;;2.50;1.58;;;;;;;;;;5049554;28;20041;-58
2022/08/11 16:18:45;;;;;;;114.13;40.83;;;;;;;;;;5040132;28;20078;-58
2022/08/11 16:21:22;;;;;;;2.67;1.60;;;;;;;;;;5040796;28;20044;-58
2022/08/11 16:23:50;;;;;;;6.00;2.67;;;;;;;;;;5053392;28;20041;-58
2022/08/11 16:26:17;;;;;;;1.80;1.23;;;;;;;;;;5046319;28;20573;-58
2022/08/11 16:28:44;;;;;;;4.40;1.48;;;;;;;;;;5038163;28;20033;-58
2022/08/11 16:31:11;;;;;;;2.83;1.67;;;;;;;;;;5037821;28;20044;-58
2022/08/11 16:33:41;;;;;;;3.03;1.63;;;;;;;;;;5038688;28;20028;-59
2022/08/11 16:38:56;;;;;;;2.85;1.33;;;;;;;;;;5054234;28;20031;-58
2022/08/11 16:46:58;;;;;;;3.30;1.70;;;;;;;;;;5038675;28;20064;-58
2022/08/11 16:49:29;;;;;;;2.50;1.42;;;;;;;;;;5038301;28;20036;-58
2022/08/11 16:51:56;;;;;;;2.47;1.52;;;;;;;;;;5042746;28;20116;-58
2022/08/11 16:54:22;;;;;;;2.45;1.55;;;;;;;;;;5033896;28;20120;-58
2022/08/11 16:56:52;;;;;;;2.00;1.23;;;;;;;;;;5037609;28;20033;-59
2022/08/11 16:59:18;;;;;;;;;;;;;;;;;;5054793;28;20017;-58
2022/08/11 17:01:48;;;;;;;3.53;1.73;;;;;;;;;;5051655;28;19912;-58
2022/08/11 17:18:39;;;;;;;3.03;1.25;;;;;;;;;;5030588;28;20146;-58
2022/08/11 17:21:06;;;;;;;3.00;1.85;;;;;;;;;;5041443;28;20025;-58
2022/08/11 17:23:47;;;;;;;2.13;1.60;;;;;;;;;;5047327;28;20025;-58
2022/08/11 17:26:52;;;;;;;2.88;1.48;;;;;;;;;;5018178;28;20040;-59
2022/08/11 17:29:17;;;;;;;2.63;1.63;;;;;;;;;;5035721;28;20735;-59
2022/08/11 17:37:16;;;;;;;4.57;1.85;;;;;;;;;;5037185;28;20317;-58
2022/08/11 17:39:43;;;;;;;2.08;1.15;;;;;;;;;;5034523;28;20052;-58
2022/08/11 17:50:28;;;;;;;2.90;1.45;;;;;;;;;;5049911;28;20382;-58
2022/08/11 18:01:10;;;;;;;2.17;1.15;;;;;;;;;;5047585;28;20094;-58
2022/08/11 18:03:40;;;;;;;2.42;1.50;;;;;;;;;;5048719;28;20025;-58
2022/08/11 18:06:09;;;;;;;6.75;1.88;;;;;;;;;;5048560;28;20035;-58
